OMAL/AAN METAR and TAF weather

Enter ICAO airport designator
Station Type Date Time Source
OMAL METAR 2022/12/10 02:00 UTC NOAA

OMAL 100200Z 04004KT CAVOK 18/14 Q1016 NOSIG


Station Type Date Time Source
OMAL Decoded METAR 2022/12/10 02:00 UTC NOAA

Al Ain International Airport, United Arab Emirates (OMAL) 24-16N 055-36E 262M
Dec 09, 2022 - 09:00 PM EST / 2022.12.10 0200 UTC
Wind: from the NE (040 degrees) at 5 MPH (4 KT):0
Visibility: greater than 7 mile(s):0
Temperature: 64 F (18 C)
Dew Point: 57 F (14 C)
Relative Humidity: 77%
Pressure (altimeter): 30.00 in. Hg (1016 hPa)
ob: OMAL 100200Z 04004KT CAVOK 18/14 Q1016 NOSIG
cycle: 2

Station Type Date Time Source
OMAL TAF 2022/12/09 18:54 UTC NOAA

TAF OMAL 091700Z 0918/1100 VRB02KT 8000 FEW035
BECMG 1006/1007 32010KT PROB30
TEMPO 1011/1016 32015G25KT 4000 BLDU FEW040TCU
BECMG 1018/1020 20005KT

Example: see airport list